Time;durP1;ratioP1;P1;durP2;ratioP2;P2;SDS_P1;SDS_P2;PMS_P1;PMS_P2;Temp;Humidity;BMP_temperature;BMP_pressure;BME280_temperature;BME280_humidity;BME280_pressure;Samples;Min_cycle;Max_cycle;Signal;HPM_P1;HPM_P2
2022/12/30 00:00:49;;;;;;;7.68;2.55;;;6.70;91.80;;;;;;5068898;28;20423;-67
2022/12/30 00:03:16;;;;;;;6.97;2.33;;;6.70;91.80;;;;;;5068627;28;20452;-67
2022/12/30 00:05:44;;;;;;;5.15;2.10;;;6.70;92.00;;;;;;5070856;28;20438;-66
2022/12/30 00:10:52;;;;;;;8.65;3.00;;;6.70;92.00;;;;;;5079683;28;20486;-67
2022/12/30 00:35:22;;;;;;;6.05;2.25;;;6.10;94.20;;;;;;5088999;28;20409;-66
2022/12/30 00:37:48;;;;;;;7.70;2.60;;;6.10;94.00;;;;;;5080353;28;20410;-68
2022/12/30 00:40:16;;;;;;;7.68;2.63;;;6.10;94.20;;;;;;5069904;28;20616;-68
2022/12/30 00:45:27;;;;;;;6.57;2.83;;;6.00;94.50;;;;;;5068410;28;20410;-66
2022/12/30 00:47:54;;;;;;;7.88;3.70;;;5.90;94.60;;;;;;5067841;28;20415;-68
2022/12/30 00:58:35;;;;;;;9.95;3.60;;;5.40;96.90;;;;;;5068555;28;20460;-68
2022/12/30 01:01:02;;;;;;;8.50;3.10;;;5.30;97.40;;;;;;5082530;28;20425;-68
2022/12/30 01:03:28;;;;;;;8.37;3.00;;;5.10;98.20;;;;;;5087502;28;20976;-67
2022/12/30 01:05:55;;;;;;;9.18;2.97;;;5.10;98.70;;;;;;5084570;28;20425;-67
2022/12/30 01:08:23;;;;;;;7.65;2.90;;;5.00;99.50;;;;;;5076197;28;20425;-69
2022/12/30 01:10:51;;;;;;;9.82;3.25;;;4.90;99.70;;;;;;5078919;28;20420;-67
2022/12/30 01:13:17;;;;;;;8.75;3.80;;;4.80;99.90;;;;;;5067520;28;20569;-67
2022/12/30 01:15:44;;;;;;;12.27;3.05;;;4.70;99.90;;;;;;5077316;28;20439;-67
2022/12/30 01:18:11;;;;;;;8.00;2.92;;;4.60;99.90;;;;;;5076194;28;20419;-67
2022/12/30 01:20:38;;;;;;;10.35;3.20;;;4.40;99.90;;;;;;5081109;28;20430;-67
2022/12/30 01:23:04;;;;;;;8.45;3.03;;;4.40;99.90;;;;;;5082891;28;20823;-68
2022/12/30 01:25:31;;;;;;;9.90;2.90;;;4.30;99.90;;;;;;5081895;28;20823;-67
2022/12/30 01:27:59;;;;;;;10.40;3.60;;;4.30;99.90;;;;;;5087714;28;21111;-69
2022/12/30 01:30:26;;;;;;;9.57;5.70;;;4.30;99.90;;;;;;5086622;28;21070;-69
2022/12/30 01:32:53;;;;;;;13.00;5.63;;;4.30;99.90;;;;;;5087172;28;20417;-68
2022/12/30 01:35:19;;;;;;;12.30;6.20;;;4.40;99.90;;;;;;5085591;28;20442;-69
2022/12/30 01:37:46;;;;;;;10.82;4.75;;;4.30;99.90;;;;;;5083263;28;20436;-67
2022/12/30 01:40:13;;;;;;;9.52;3.90;;;4.30;99.90;;;;;;5071361;28;20417;-68
2022/12/30 01:42:41;;;;;;;9.48;3.95;;;4.30;99.90;;;;;;5070705;28;20415;-68
2022/12/30 01:45:18;;;;;;;8.40;3.38;;;4.30;99.90;;;;;;5071250;28;20906;-67
2022/12/30 01:47:50;;;;;;;9.60;3.10;;;4.30;99.90;;;;;;5079036;28;20446;-67
2022/12/30 01:50:24;;;;;;;9.40;3.10;;;4.40;99.90;;;;;;5082887;28;20417;-68
2022/12/30 01:52:54;;;;;;;6.32;3.10;;;4.50;99.90;;;;;;5081466;28;20414;-68
2022/12/30 01:55:27;;;;;;;7.10;2.55;;;4.60;99.90;;;;;;5070716;28;20431;-67
2022/12/30 01:57:56;;;;;;;10.15;2.80;;;4.70;99.90;;;;;;5078820;28;20969;-68
2022/12/30 02:00:24;;;;;;;7.67;3.10;;;4.70;99.90;;;;;;5085365;28;20425;-68
2022/12/30 02:02:52;;;;;;;9.13;2.77;;;4.70;99.90;;;;;;5090563;28;20475;-68
2022/12/30 02:05:22;;;;;;;7.70;2.73;;;4.70;99.90;;;;;;5085279;28;20778;-68
2022/12/30 02:07:54;;;;;;;8.45;2.60;;;4.70;99.90;;;;;;5079728;28;20927;-68
2022/12/30 02:10:22;;;;;;;8.88;2.88;;;4.60;99.90;;;;;;5070622;28;20415;-68
2022/12/30 02:12:49;;;;;;;7.97;2.70;;;4.60;99.90;;;;;;5070139;28;20531;-68
2022/12/30 02:15:15;;;;;;;8.47;3.03;;;4.70;99.90;;;;;;5070466;28;20962;-67
2022/12/30 02:17:55;;;;;;;8.45;2.90;;;4.70;99.90;;;;;;5070436;28;20415;-68
2022/12/30 02:20:51;;;;;;;8.05;2.60;;;4.70;99.90;;;;;;5085801;28;20437;-68
2022/12/30 02:23:49;;;;;;;6.93;2.67;;;4.60;99.90;;;;;;5081038;28;20499;-68
2022/12/30 02:26:45;;;;;;;7.97;2.80;;;4.70;99.90;;;;;;5070332;28;21187;-68
2022/12/30 02:29:44;;;;;;;7.43;2.80;;;4.50;99.90;;;;;;5083190;28;20818;-68
2022/12/30 02:32:19;;;;;;;8.25;3.00;;;4.50;99.90;;;;;;5086922;28;20420;-68
2022/12/30 02:34:56;;;;;;;7.72;2.67;;;4.60;99.90;;;;;;5090318;28;20433;-68
2022/12/30 02:37:31;;;;;;;9.18;2.80;;;4.60;99.90;;;;;;5083509;28;20434;-69
2022/12/30 02:40:06;;;;;;;9.27;3.22;;;4.60;99.90;;;;;;5078291;28;20418;-67
2022/12/30 02:45:27;;;;;;;8.50;2.60;;;4.60;99.90;;;;;;5078993;28;21036;-68
2022/12/30 02:48:01;;;;;;;9.03;3.13;;;4.70;99.90;;;;;;5071408;28;20431;-67
2022/12/30 02:53:17;;;;;;;8.20;2.88;;;4.90;99.90;;;;;;5078542;28;20417;-67
2022/12/30 02:55:44;;;;;;;9.25;3.05;;;4.90;99.90;;;;;;5074215;28;20446;-68
2022/12/30 02:58:12;;;;;;;7.35;2.65;;;4.90;99.90;;;;;;5070766;28;20554;-67
2022/12/30 03:03:59;;;;;;;7.80;2.60;;;4.90;99.90;;;;;;5090359;28;20408;-69
2022/12/30 03:06:54;;;;;;;8.18;2.70;;;4.90;99.90;;;;;;5083262;28;20427;-68
2022/12/30 03:09:35;;;;;;;9.73;3.10;;;4.90;99.90;;;;;;5072999;28;20422;-67
2022/12/30 03:12:07;;;;;;;9.63;2.60;;;4.80;99.90;;;;;;5090881;28;20413;-67
2022/12/30 03:14:41;;;;;;;8.40;2.60;;;4.90;99.90;;;;;;5078661;28;20796;-67
2022/12/30 03:17:11;;;;;;;7.15;2.50;;;4.80;99.90;;;;;;5070082;28;20416;-67
2022/12/30 03:19:43;;;;;;;8.20;2.58;;;4.90;99.90;;;;;;5069550;28;20418;-68
2022/12/30 03:27:03;;;;;;;9.65;2.70;;;4.80;99.90;;;;;;5085974;28;20426;-68
2022/12/30 03:27:49;;;;;;;6.70;2.53;;;4.80;99.90;;;;;;5069321;28;20468;-68
2022/12/30 03:30:17;;;;;;;7.45;3.33;;;4.70;99.90;;;;;;5076539;28;20406;-68
2022/12/30 03:32:45;;;;;;;7.50;2.70;;;4.70;99.90;;;;;;5089627;28;20405;-67
2022/12/30 03:35:13;;;;;;;8.52;2.90;;;4.80;99.90;;;;;;5084140;28;20427;-68
2022/12/30 03:37:44;;;;;;;6.67;3.13;;;4.70;99.90;;;;;;5077647;28;20439;-68
2022/12/30 03:40:15;;;;;;;9.65;3.25;;;4.70;99.90;;;;;;5080955;28;20423;-67
2022/12/30 03:42:43;;;;;;;7.35;2.67;;;4.70;99.90;;;;;;5089405;28;20414;-67
2022/12/30 03:45:10;;;;;;;9.30;2.95;;;4.70;99.90;;;;;;5089870;28;20484;-66
2022/12/30 03:47:37;;;;;;;9.15;3.42;;;4.70;99.90;;;;;;5090723;28;20402;-67
2022/12/30 03:50:05;;;;;;;7.75;4.18;;;4.70;99.90;;;;;;5089542;28;20746;-69
2022/12/30 03:52:33;;;;;;;8.18;4.82;;;4.70;99.90;;;;;;5083154;28;20415;-67
2022/12/30 03:55:00;;;;;;;11.40;5.30;;;4.70;99.90;;;;;;5069562;28;20424;-65
2022/12/30 03:57:26;;;;;;;10.93;4.30;;;4.70;99.90;;;;;;5069565;28;20416;-68
2022/12/30 03:59:53;;;;;;;6.60;3.10;;;4.80;99.90;;;;;;5073396;28;20409;-68
2022/12/30 04:02:20;;;;;;;6.00;3.58;;;4.80;99.90;;;;;;5089101;28;20410;-66
2022/12/30 04:04:47;;;;;;;9.65;2.95;;;4.80;99.90;;;;;;5087937;28;20442;-66
2022/12/30 04:07:13;;;;;;;9.77;3.17;;;4.80;99.90;;;;;;5076859;28;20426;-68
2022/12/30 04:09:41;;;;;;;9.07;3.08;;;4.80;99.90;;;;;;5068810;28;20778;-68
2022/12/30 04:12:08;;;;;;;9.43;3.60;;;4.80;99.90;;;;;;5068290;28;20423;-67
2022/12/30 04:14:35;;;;;;;7.87;3.60;;;4.70;99.90;;;;;;5068067;28;20424;-66
2022/12/30 04:17:02;;;;;;;6.40;3.00;;;4.70;99.90;;;;;;5068538;28;20419;-69
2022/12/30 04:19:28;;;;;;;7.15;2.63;;;4.60;99.90;;;;;;5069650;28;20460;-69
2022/12/30 04:21:55;;;;;;;5.17;2.67;;;4.60;99.90;;;;;;5079177;28;20441;-68
2022/12/30 04:24:22;;;;;;;7.32;2.58;;;4.50;99.90;;;;;;5068110;28;20443;-68
2022/12/30 04:26:50;;;;;;;8.40;2.67;;;4.50;99.90;;;;;;5068300;28;20482;-68
2022/12/30 04:29:17;;;;;;;8.50;2.45;;;4.60;99.90;;;;;;5068051;28;20910;-69
2022/12/30 04:31:44;;;;;;;5.45;2.47;;;4.60;99.90;;;;;;5087172;28;20417;-69
2022/12/30 04:34:12;;;;;;;8.37;2.70;;;4.60;99.90;;;;;;5083579;28;20431;-68
2022/12/30 04:36:39;;;;;;;5.10;2.55;;;4.60;99.90;;;;;;5077024;28;20465;-68
2022/12/30 04:39:05;;;;;;;7.43;2.95;;;4.60;99.90;;;;;;5069093;28;20897;-68
2022/12/30 04:41:32;;;;;;;8.15;2.42;;;4.60;99.90;;;;;;5085512;28;20424;-68
2022/12/30 04:44:01;;;;;;;6.50;2.30;;;4.60;99.90;;;;;;5087890;28;20410;-68
2022/12/30 04:46:29;;;;;;;5.93;2.50;;;4.60;99.90;;;;;;5088188;28;20414;-68
2022/12/30 04:48:55;;;;;;;7.47;2.50;;;4.60;99.90;;;;;;5086004;28;20806;-68
2022/12/30 04:51:22;;;;;;;6.43;2.70;;;4.60;99.90;;;;;;5080986;28;20426;-68
2022/12/30 04:53:49;;;;;;;7.37;2.97;;;4.60;99.90;;;;;;5070689;28;20463;-68
2022/12/30 04:56:17;;;;;;;7.75;2.80;;;4.60;99.90;;;;;;5067731;28;20988;-68
2022/12/30 04:58:44;;;;;;;7.28;3.00;;;4.50;99.90;;;;;;5067910;28;20416;-68
2022/12/30 05:01:12;;;;;;;6.97;2.83;;;4.60;99.90;;;;;;5082569;28;20426;-67
2022/12/30 05:03:39;;;;;;;6.32;2.50;;;4.60;99.90;;;;;;5087032;28;20441;-67
2022/12/30 05:06:07;;;;;;;8.70;2.72;;;4.60;99.90;;;;;;5078477;28;20428;-68
2022/12/30 05:08:33;;;;;;;6.75;2.70;;;4.70;99.90;;;;;;5082015;28;20525;-66
2022/12/30 05:11:00;;;;;;;6.60;2.90;;;4.70;99.90;;;;;;5073373;28;20934;-68
2022/12/30 05:13:27;;;;;;;6.78;2.20;;;4.70;99.90;;;;;;5069732;28;20441;-66
2022/12/30 05:15:53;;;;;;;8.63;2.72;;;4.70;99.90;;;;;;5067938;28;20427;-67
2022/12/30 05:18:21;;;;;;;6.00;2.75;;;4.70;99.90;;;;;;5067396;28;20427;-66
2022/12/30 05:20:49;;;;;;;5.85;2.90;;;4.70;99.90;;;;;;5073501;28;20438;-66
2022/12/30 05:26:15;;;;;;;7.20;3.10;;;4.90;99.90;;;;;;5080874;28;20807;-70
2022/12/30 05:28:42;;;;;;;8.20;2.60;;;4.90;99.90;;;;;;5077992;28;20714;-68
2022/12/30 05:31:08;;;;;;;6.75;2.60;;;4.90;99.90;;;;;;5067145;28;20419;-67
2022/12/30 05:36:15;;;;;;;9.73;3.15;;;5.00;99.90;;;;;;5055032;28;20425;-67
2022/12/30 05:38:42;;;;;;;6.35;2.85;;;5.00;99.90;;;;;;5042701;28;20437;-68
2022/12/30 05:41:10;;;;;;;7.87;2.80;;;5.00;99.90;;;;;;5037852;28;20501;-68
2022/12/30 05:43:37;;;;;;;7.22;2.25;;;5.00;99.90;;;;;;5039802;28;20420;-69
2022/12/30 05:46:04;;;;;;;4.20;2.20;;;5.00;99.90;;;;;;5025630;28;20426;-68
2022/12/30 05:48:31;;;;;;;8.93;2.70;;;4.90;99.90;;;;;;5025294;28;20431;-68
2022/12/30 05:50:57;;;;;;;7.47;2.60;;;4.90;99.90;;;;;;5025117;28;20806;-69
2022/12/30 05:53:25;;;;;;;5.43;2.42;;;4.80;99.90;;;;;;5032647;28;20436;-69
2022/12/30 05:55:52;;;;;;;7.13;2.42;;;4.80;99.90;;;;;;5015221;28;20784;-68
2022/12/30 05:58:19;;;;;;;8.45;2.50;;;4.80;99.90;;;;;;5027237;28;20492;-66
2022/12/30 06:00:46;;;;;;;6.30;2.55;;;4.90;99.90;;;;;;5027578;28;20526;-69
2022/12/30 06:03:12;;;;;;;6.37;2.70;;;4.90;99.90;;;;;;5033449;28;20419;-65
2022/12/30 06:05:41;;;;;;;8.48;2.80;;;5.00;99.90;;;;;;5040178;28;20403;-65
2022/12/30 06:08:07;;;;;;;7.60;2.47;;;5.00;99.90;;;;;;5031138;28;20441;-70
2022/12/30 06:10:36;;;;;;;8.65;2.90;;;5.00;99.90;;;;;;5040862;28;20431;-70
2022/12/30 06:13:03;;;;;;;4.75;2.20;;;5.00;99.90;;;;;;5032089;28;20432;-65
2022/12/30 06:15:30;;;;;;;8.40;4.23;;;5.00;99.90;;;;;;5024769;28;20442;-68
2022/12/30 06:17:56;;;;;;;8.73;3.40;;;5.10;99.90;;;;;;5017791;28;20521;-68
2022/12/30 06:20:23;;;;;;;8.05;2.78;;;5.10;99.90;;;;;;5026097;28;20446;-68
2022/12/30 06:22:50;;;;;;;9.18;2.88;;;5.10;99.90;;;;;;5020643;28;20941;-68
2022/12/30 06:25:17;;;;;;;6.93;2.50;;;5.00;99.90;;;;;;5017140;28;20420;-71
2022/12/30 06:27:45;;;;;;;8.57;3.20;;;5.00;99.90;;;;;;5029148;28;20419;-71
2022/12/30 06:30:13;;;;;;;7.63;2.83;;;5.00;99.90;;;;;;5015316;28;20818;-72
2022/12/30 06:32:40;;;;;;;5.20;2.30;;;5.00;99.90;;;;;;5026086;28;20457;-70
2022/12/30 06:35:07;;;;;;;5.50;2.10;;;4.90;99.90;;;;;;5026748;28;20431;-69
2022/12/30 06:37:34;;;;;;;6.93;2.92;;;4.90;99.90;;;;;;5027794;28;20427;-68
2022/12/30 06:40:00;;;;;;;6.70;2.90;;;4.90;99.90;;;;;;5027786;28;20438;-68
2022/12/30 06:42:27;;;;;;;8.57;2.67;;;4.80;99.90;;;;;;5017433;28;20499;-68
2022/12/30 06:44:55;;;;;;;8.25;2.78;;;4.80;99.90;;;;;;5027364;28;20415;-68
2022/12/30 06:47:22;;;;;;;7.85;2.65;;;4.80;99.90;;;;;;5027028;28;20529;-67
2022/12/30 06:49:49;;;;;;;5.20;2.30;;;4.80;99.90;;;;;;5026813;28;20561;-68
2022/12/30 06:52:16;;;;;;;6.97;2.47;;;4.80;99.90;;;;;;5027815;28;20453;-68
2022/12/30 06:54:42;;;;;;;5.40;2.40;;;4.90;99.90;;;;;;5028140;28;20422;-68
2022/12/30 06:57:09;;;;;;;7.70;2.50;;;5.00;99.90;;;;;;5019481;28;20436;-68
2022/12/30 06:59:36;;;;;;;7.40;2.40;;;5.00;99.90;;;;;;5033252;28;20435;-67
2022/12/30 07:02:04;;;;;;;5.30;2.25;;;5.10;99.90;;;;;;5027606;28;20541;-68
2022/12/30 07:04:31;;;;;;;5.38;2.15;;;5.10;99.90;;;;;;5027321;28;20795;-69
2022/12/30 07:06:58;;;;;;;6.72;2.20;;;5.20;99.90;;;;;;5020825;28;20668;-68
2022/12/30 07:09:24;;;;;;;5.47;2.30;;;5.20;99.90;;;;;;5022048;28;20419;-68
2022/12/30 07:11:51;;;;;;;8.80;1.95;;;5.30;99.90;;;;;;5025874;28;20779;-68
2022/12/30 07:14:18;;;;;;;5.35;2.30;;;5.30;99.90;;;;;;5022230;28;20757;-68
2022/12/30 07:16:45;;;;;;;7.90;2.60;;;5.40;99.90;;;;;;5025020;28;20434;-70
2022/12/30 07:19:13;;;;;;;7.05;1.90;;;5.40;99.90;;;;;;5032691;28;20552;-68
2022/12/30 07:21:40;;;;;;;5.82;2.20;;;5.40;99.90;;;;;;5020436;28;20767;-68
2022/12/30 07:24:07;;;;;;;5.03;1.90;;;5.50;99.90;;;;;;5017386;28;20430;-68
2022/12/30 07:26:34;;;;;;;4.60;2.00;;;5.40;99.90;;;;;;5009194;28;20511;-68
2022/12/30 07:29:01;;;;;;;7.47;2.50;;;5.40;99.90;;;;;;5030394;28;20480;-68
2022/12/30 07:31:27;;;;;;;3.97;1.92;;;5.50;99.90;;;;;;5037283;28;20427;-68
2022/12/30 07:33:54;;;;;;;4.80;1.80;;;5.40;99.90;;;;;;5015856;28;20915;-70
2022/12/30 07:36:22;;;;;;;6.97;2.03;;;5.40;99.90;;;;;;5027245;28;20552;-68
2022/12/30 07:38:49;;;;;;;5.03;2.20;;;5.50;99.90;;;;;;5039939;28;20411;-69
2022/12/30 07:41:16;;;;;;;5.43;2.40;;;5.50;99.90;;;;;;5008731;28;20425;-69
2022/12/30 07:43:42;;;;;;;6.23;2.10;;;5.50;99.90;;;;;;5021090;28;20419;-67
2022/12/30 07:46:10;;;;;;;6.10;1.80;;;5.50;99.90;;;;;;5028809;28;20783;-67
2022/12/30 07:48:37;;;;;;;4.45;1.80;;;5.60;99.90;;;;;;5026766;28;20695;-69
2022/12/30 07:51:07;;;;;;;5.20;2.00;;;5.60;99.90;;;;;;5026917;28;20500;-67
2022/12/30 07:53:36;;;;;;;5.75;2.60;;;5.60;99.90;;;;;;5013902;28;20495;-69
2022/12/30 07:56:05;;;;;;;6.00;2.20;;;5.60;99.90;;;;;;5027293;28;20904;-67
2022/12/30 07:58:32;;;;;;;4.47;1.85;;;5.60;99.90;;;;;;5013642;28;20949;-67
2022/12/30 08:00:59;;;;;;;5.97;2.70;;;5.60;99.90;;;;;;5040751;28;20448;-66
2022/12/30 08:03:25;;;;;;;6.20;2.45;;;5.60;99.90;;;;;;5042323;28;20543;-70
2022/12/30 08:05:52;;;;;;;4.75;1.92;;;5.60;99.90;;;;;;5039423;28;20485;-67
2022/12/30 08:08:19;;;;;;;3.80;1.67;;;5.60;99.90;;;;;;5043276;28;20927;-67
2022/12/30 08:10:55;;;;;;;4.70;2.10;;;5.70;99.90;;;;;;5039883;28;20421;-69
2022/12/30 08:13:22;;;;;;;4.67;1.90;;;5.80;99.90;;;;;;5017076;28;20615;-67
2022/12/30 08:15:49;;;;;;;4.80;2.08;;;6.00;99.80;;;;;;5020265;28;20431;-67
2022/12/30 08:18:16;;;;;;;5.50;1.85;;;6.20;99.40;;;;;;5026534;28;20754;-69
2022/12/30 08:20:43;;;;;;;2.88;2.00;;;6.30;99.00;;;;;;5028443;28;20494;-69
2022/12/30 08:23:10;;;;;;;4.28;1.88;;;6.40;98.70;;;;;;5028382;28;20421;-66
2022/12/30 08:25:36;;;;;;;4.68;2.30;;;6.50;98.30;;;;;;5051445;28;20437;-69
2022/12/30 08:28:05;;;;;;;3.92;2.00;;;6.60;97.90;;;;;;5035560;28;20423;-72
2022/12/30 08:30:32;;;;;;;6.30;2.00;;;6.70;97.60;;;;;;5029958;28;20853;-68
2022/12/30 08:32:58;;;;;;;6.18;1.85;;;6.70;97.60;;;;;;5027995;28;20446;-69
2022/12/30 08:35:25;;;;;;;5.47;2.50;;;6.70;97.40;;;;;;5023674;28;20424;-68
2022/12/30 08:37:52;;;;;;;4.88;2.00;;;6.80;97.00;;;;;;5012256;28;20430;-69
2022/12/30 08:40:19;;;;;;;4.38;1.80;;;6.90;96.70;;;;;;5028458;28;20430;-68
2022/12/30 08:42:45;;;;;;;5.10;1.73;;;7.00;96.40;;;;;;5028390;28;20499;-69
2022/12/30 08:45:13;;;;;;;5.80;1.90;;;7.00;96.40;;;;;;5028199;28;20685;-68
2022/12/30 08:47:40;;;;;;;5.70;1.67;;;7.10;96.20;;;;;;5027043;28;20431;-69
2022/12/30 08:50:08;;;;;;;6.30;2.00;;;7.20;96.00;;;;;;5028939;28;20423;-68
2022/12/30 08:52:35;;;;;;;4.90;1.67;;;7.20;95.70;;;;;;5023984;28;20784;-68
2022/12/30 08:55:02;;;;;;;3.88;2.10;;;7.30;95.70;;;;;;5008585;28;20427;-68
2022/12/30 08:57:29;;;;;;;7.07;2.30;;;7.30;95.40;;;;;;5021355;28;20467;-69
2022/12/30 08:59:56;;;;;;;5.18;1.88;;;7.40;95.20;;;;;;5019173;28;20411;-68
2022/12/30 09:02:24;;;;;;;5.32;2.30;;;7.50;94.90;;;;;;5027536;28;20509;-67
2022/12/30 09:04:51;;;;;;;5.07;2.05;;;7.50;94.80;;;;;;5026777;28;20415;-67
2022/12/30 09:07:17;;;;;;;5.50;1.70;;;7.60;94.20;;;;;;5029157;28;20421;-67
2022/12/30 09:09:44;;;;;;;4.28;1.30;;;7.80;94.00;;;;;;5022381;28;20431;-67
2022/12/30 09:12:11;;;;;;;4.25;1.52;;;7.90;93.30;;;;;;5027561;28;20413;-67
2022/12/30 09:14:37;;;;;;;5.53;1.97;;;8.10;93.90;;;;;;5013994;28;20461;-67
2022/12/30 09:17:04;;;;;;;4.07;2.10;;;8.10;94.10;;;;;;5024490;28;20781;-67
2022/12/30 09:19:32;;;;;;;5.47;2.55;;;8.20;94.00;;;;;;5020393;28;20427;-66
2022/12/30 09:21:59;;;;;;;6.80;2.40;;;8.30;93.90;;;;;;5027053;28;20415;-66
2022/12/30 09:24:26;;;;;;;4.70;2.20;;;8.40;93.90;;;;;;5029989;28;20449;-67
2022/12/30 09:26:52;;;;;;;5.75;2.30;;;8.50;93.40;;;;;;5028389;28;20415;-69
2022/12/30 09:29:19;;;;;;;5.55;2.20;;;8.60;92.80;;;;;;5013948;28;20421;-67
2022/12/30 09:31:46;;;;;;;3.70;1.60;;;8.70;92.70;;;;;;5026582;28;20472;-73
2022/12/30 09:34:13;;;;;;;4.25;1.50;;;8.90;91.80;;;;;;5031620;28;20435;-69
2022/12/30 09:36:41;;;;;;;3.75;2.13;;;9.00;91.40;;;;;;5025126;28;20432;-69
2022/12/30 09:39:10;;;;;;;3.92;1.42;;;9.10;91.00;;;;;;5032538;28;22320;-70
2022/12/30 09:44:47;;;;;;;5.20;1.70;;;9.30;90.40;;;;;;5030186;28;20780;-69
2022/12/30 09:47:21;;;;;;;3.67;1.50;;;9.20;90.40;;;;;;5028727;28;20551;-68
2022/12/30 09:49:53;;;;;;;6.40;1.65;;;9.30;89.80;;;;;;5034176;28;20417;-67
2022/12/30 09:52:26;;;;;;;2.75;1.38;;;9.20;90.00;;;;;;5026868;28;20463;-68
2022/12/30 09:54:57;;;;;;;3.80;1.70;;;9.20;89.50;;;;;;5025381;28;20498;-69
2022/12/30 09:57:31;;;;;;;3.72;1.77;;;9.20;89.20;;;;;;5028811;28;20474;-69
2022/12/30 10:00:02;;;;;;;4.03;1.40;;;9.20;88.80;;;;;;5031328;28;20414;-69
2022/12/30 10:02:31;;;;;;;4.75;1.77;;;9.10;88.90;;;;;;5026142;28;20457;-67
2022/12/30 10:05:00;;;;;;;2.20;1.50;;;9.10;88.70;;;;;;5029644;28;20434;-67
2022/12/30 10:07:35;;;;;;;3.47;1.50;;;9.10;88.40;;;;;;5028983;28;20422;-67
2022/12/30 10:10:06;;;;;;;3.60;1.48;;;9.10;88.50;;;;;;5028267;28;20426;-67
2022/12/30 10:12:51;;;;;;;4.38;1.60;;;9.10;88.30;;;;;;5037237;28;20457;-67
2022/12/30 10:15:45;;;;;;;4.55;1.70;;;9.10;87.50;;;;;;5029752;28;20442;-66
2022/12/30 10:18:38;;;;;;;5.13;1.50;;;9.30;87.00;;;;;;5017866;28;20451;-67
2022/12/30 10:21:16;;;;;;;3.63;1.50;;;9.40;85.80;;;;;;5014932;28;20436;-67
2022/12/30 10:23:58;;;;;;;3.47;1.55;;;9.50;86.00;;;;;;5030052;28;20579;-69
2022/12/30 10:26:27;;;;;;;4.22;1.70;;;9.60;85.10;;;;;;5031912;28;20418;-68
2022/12/30 10:28:58;;;;;;;3.60;1.40;;;9.60;84.70;;;;;;5028337;28;20797;-68
2022/12/30 10:31:28;;;;;;;3.22;1.60;;;9.60;85.00;;;;;;5027052;28;20784;-69
2022/12/30 10:34:02;;;;;;;3.20;1.50;;;9.60;85.00;;;;;;5027293;28;20411;-69
2022/12/30 10:36:34;;;;;;;3.78;1.70;;;9.60;85.50;;;;;;5030527;28;20442;-69
2022/12/30 10:39:16;;;;;;;6.20;1.80;;;9.60;85.00;;;;;;5038117;28;20422;-68
2022/12/30 10:41:57;;;;;;;4.05;2.35;;;9.60;86.00;;;;;;5020583;28;20498;-68
2022/12/30 10:44:30;;;;;;;4.70;2.10;;;9.60;85.80;;;;;;5013931;28;20536;-69
2022/12/30 10:47:28;;;;;;;4.25;2.20;;;9.50;86.00;;;;;;5028000;28;20988;-69
2022/12/30 10:50:16;;;;;;;3.47;1.90;;;9.50;86.40;;;;;;5005149;28;20435;-68
2022/12/30 10:52:43;;;;;;;3.88;1.90;;;9.60;85.50;;;;;;5028466;28;20426;-69
2022/12/30 10:55:23;;;;;;;4.65;1.88;;;9.50;86.10;;;;;;5028024;28;20434;-71
2022/12/30 10:57:53;;;;;;;5.32;1.95;;;9.50;86.10;;;;;;5027062;28;20442;-69
2022/12/30 11:00:21;;;;;;;4.03;2.08;;;9.50;86.20;;;;;;5027021;28;20422;-69
2022/12/30 11:02:55;;;;;;;3.58;1.75;;;9.40;86.80;;;;;;5027581;28;21048;-67
2022/12/30 11:05:34;;;;;;;3.67;1.77;;;9.40;86.60;;;;;;5025084;28;20789;-69
2022/12/30 11:08:02;;;;;;;4.80;2.03;;;9.40;86.80;;;;;;5027709;28;20414;-69
2022/12/30 11:10:31;;;;;;;2.72;2.20;;;9.40;86.70;;;;;;5011563;28;20443;-67
2022/12/30 11:15:55;;;;;;;3.80;1.90;;;9.50;85.90;;;;;;5022468;28;20418;-67
2022/12/30 11:18:26;;;;;;;7.70;2.28;;;9.40;86.00;;;;;;5019395;28;20446;-67
2022/12/30 11:20:55;;;;;;;3.08;1.90;;;9.40;86.00;;;;;;5018424;28;20486;-67
2022/12/30 11:23:27;;;;;;;4.40;2.00;;;9.40;85.60;;;;;;5024368;28;20873;-69
2022/12/30 11:25:55;;;;;;;3.92;1.65;;;9.40;85.70;;;;;;5039201;28;20417;-67
2022/12/30 11:28:24;;;;;;;5.00;1.90;;;9.40;85.70;;;;;;5028071;28;20445;-69
2022/12/30 11:30:58;;;;;;;4.00;2.00;;;9.40;86.00;;;;;;5027282;28;20419;-71
2022/12/30 11:33:28;;;;;;;5.32;2.03;;;9.30;85.90;;;;;;5038360;28;20412;-69
2022/12/30 11:36:09;;;;;;;3.50;1.85;;;9.30;85.30;;;;;;5025857;28;20461;-69
2022/12/30 11:38:38;;;;;;;4.53;1.95;;;9.30;86.00;;;;;;5025401;28;20437;-68
2022/12/30 11:41:21;;;;;;;4.13;2.10;;;9.30;85.90;;;;;;5019878;28;20421;-69
2022/12/30 11:43:49;;;;;;;4.60;2.20;;;9.30;86.10;;;;;;5018175;28;20800;-69
2022/12/30 11:46:19;;;;;;;3.30;1.90;;;9.30;86.10;;;;;;5011730;28;21041;-69
2022/12/30 11:48:49;;;;;;;3.22;2.10;;;9.30;86.10;;;;;;5020957;28;20424;-69
2022/12/30 11:51:19;;;;;;;4.78;2.10;;;9.40;85.40;;;;;;5010437;28;20523;-69
2022/12/30 11:53:47;;;;;;;3.38;1.90;;;9.30;85.30;;;;;;5008029;28;20528;-68
2022/12/30 11:56:20;;;;;;;4.20;2.30;;;9.30;85.20;;;;;;5027189;28;20403;-69
2022/12/30 11:58:49;;;;;;;2.90;1.83;;;9.30;85.50;;;;;;5023706;28;20514;-68
2022/12/30 12:01:16;;;;;;;3.67;1.85;;;9.30;85.60;;;;;;5022249;28;20849;-68
2022/12/30 12:03:50;;;;;;;4.78;1.80;;;9.30;85.30;;;;;;5024149;28;20445;-69
2022/12/30 12:06:17;;;;;;;3.20;1.80;;;9.20;85.70;;;;;;5017955;28;20814;-70
2022/12/30 12:08:53;;;;;;;2.70;1.70;;;9.20;86.00;;;;;;5024311;28;20431;-69
2022/12/30 12:11:23;;;;;;;3.17;1.73;;;9.20;86.20;;;;;;5022679;28;20943;-69
2022/12/30 12:14:02;;;;;;;4.90;1.80;;;9.20;86.10;;;;;;5023344;28;20836;-70
2022/12/30 12:16:42;;;;;;;3.03;1.50;;;9.20;86.30;;;;;;5025592;28;20434;-69
2022/12/30 12:19:20;;;;;;;3.55;1.70;;;9.10;86.50;;;;;;5018861;28;20453;-69
2022/12/30 12:21:50;;;;;;;3.70;1.70;;;9.10;86.70;;;;;;5023299;28;20908;-68
2022/12/30 12:24:23;;;;;;;3.65;1.90;;;9.10;87.00;;;;;;5017959;28;20429;-69
2022/12/30 12:26:56;;;;;;;3.75;1.60;;;9.10;87.30;;;;;;5032448;28;20447;-71
2022/12/30 12:29:25;;;;;;;3.60;1.60;;;9.10;87.30;;;;;;5033469;28;20885;-69
2022/12/30 12:32:16;;;;;;;3.22;1.65;;;9.10;88.00;;;;;;5019044;28;20525;-69
2022/12/30 12:34:56;;;;;;;3.45;1.60;;;9.10;88.10;;;;;;5027659;28;20504;-69
2022/12/30 12:37:39;;;;;;;4.20;1.80;;;9.10;88.00;;;;;;5030232;28;20565;-69
2022/12/30 12:40:24;;;;;;;4.75;1.70;;;9.10;87.90;;;;;;5018765;28;20429;-67
2022/12/30 12:42:58;;;;;;;2.53;1.50;;;9.10;88.20;;;;;;5010440;28;20424;-68
2022/12/30 12:45:45;;;;;;;3.50;1.60;;;9.10;88.40;;;;;;5026608;28;20457;-69
2022/12/30 12:48:40;;;;;;;3.25;1.80;;;9.10;88.40;;;;;;5015843;28;20684;-69
2022/12/30 12:51:25;;;;;;;2.50;1.60;;;9.10;88.40;;;;;;5027114;28;20601;-69
2022/12/30 12:54:18;;;;;;;3.50;1.60;;;9.10;88.70;;;;;;5027776;28;20430;-67
2022/12/30 12:56:56;;;;;;;3.50;1.80;;;9.10;88.20;;;;;;5029102;28;20426;-67
2022/12/30 12:59:37;;;;;;;4.00;1.70;;;9.10;88.40;;;;;;5029263;28;20769;-70
2022/12/30 13:02:19;;;;;;;3.97;1.60;;;9.10;88.10;;;;;;5025567;28;20453;-67
2022/12/30 13:04:56;;;;;;;2.55;1.27;;;9.10;88.20;;;;;;5012472;28;20432;-68
2022/12/30 13:07:38;;;;;;;2.97;1.60;;;9.10;87.80;;;;;;5032891;28;20413;-66
2022/12/30 13:10:22;;;;;;;3.70;1.50;;;9.20;87.70;;;;;;5054206;28;20432;-66
2022/12/30 13:12:56;;;;;;;2.58;1.30;;;9.20;87.20;;;;;;5029231;28;20415;-70
2022/12/30 13:15:26;;;;;;;2.47;1.20;;;9.20;87.20;;;;;;5036303;28;20522;-66
2022/12/30 13:17:58;;;;;;;2.45;1.40;;;9.20;87.20;;;;;;5030828;28;20447;-69
2022/12/30 13:20:29;;;;;;;3.08;1.60;;;9.30;87.20;;;;;;5025235;28;20419;-69
2022/12/30 13:23:02;;;;;;;2.80;1.63;;;9.30;87.60;;;;;;5034445;28;20495;-68
2022/12/30 13:25:32;;;;;;;2.67;1.40;;;9.30;88.20;;;;;;5021497;28;20419;-68
2022/12/30 13:28:01;;;;;;;2.97;1.40;;;9.20;89.20;;;;;;5035745;28;20877;-69
2022/12/30 13:30:34;;;;;;;4.07;1.60;;;9.20;90.70;;;;;;5036001;28;20429;-69
2022/12/30 13:33:09;;;;;;;2.78;1.17;;;9.10;91.80;;;;;;5034548;28;20430;-68
2022/12/30 13:35:50;;;;;;;3.88;1.35;;;9.10;91.80;;;;;;5041836;28;20439;-68
2022/12/30 13:38:29;;;;;;;3.17;1.55;;;9.00;92.30;;;;;;5043091;28;21001;-68
2022/12/30 13:41:15;;;;;;;2.95;1.50;;;9.00;92.90;;;;;;5042042;28;20455;-68
2022/12/30 13:43:44;;;;;;;4.53;1.70;;;8.90;93.30;;;;;;5038431;28;20780;-66
2022/12/30 13:46:16;;;;;;;3.30;1.38;;;8.90;94.70;;;;;;5042179;28;20434;-67
2022/12/30 13:48:51;;;;;;;4.60;1.60;;;8.80;94.90;;;;;;5029784;28;20416;-67
2022/12/30 13:51:20;;;;;;;5.40;1.88;;;8.70;97.10;;;;;;5020046;28;20532;-66
2022/12/30 13:53:49;;;;;;;4.25;1.45;;;8.60;97.30;;;;;;5029774;28;20423;-68
2022/12/30 13:56:20;;;;;;;3.20;1.60;;;8.50;97.70;;;;;;5022446;28;22561;-69
2022/12/30 13:58:51;;;;;;;2.70;1.60;;;8.50;97.90;;;;;;5032078;28;20820;-69
2022/12/30 14:01:32;;;;;;;4.53;1.70;;;8.40;99.00;;;;;;5036535;28;20461;-69
2022/12/30 14:04:44;;;;;;;4.25;1.80;;;8.40;99.60;;;;;;5032657;28;20478;-69
2022/12/30 14:07:46;;;;;;;5.10;3.08;;;8.30;99.80;;;;;;4986277;28;20586;-69
2022/12/30 14:10:49;;;;;;;3.90;1.65;;;8.30;99.90;;;;;;4973155;28;21084;-68
2022/12/30 14:13:34;;;;;;;5.40;1.60;;;8.30;99.90;;;;;;5023597;28;20452;-67
2022/12/30 14:16:09;;;;;;;3.33;1.73;;;8.20;99.90;;;;;;5013378;28;20486;-69